Time;durP1;ratioP1;P1;durP2;ratioP2;P2;SDS_P1;SDS_P2;PMS_P1;PMS_P2;Temp;Humidity;BMP_temperature;BMP_pressure;BME280_temperature;BME280_humidity;BME280_pressure;Samples;Min_cycle;Max_cycle;Signal;HPM_P1;HPM_P2
2022/11/05 00:09:36;;;;;;;6.33;5.67;;;10.10;99.90;;;;;;5067633;28;20230;-67
2022/11/05 00:17:36;;;;;;;5.50;4.90;;;10.10;99.90;;;;;;5067633;28;20203;-67
2022/11/05 00:20:03;;;;;;;5.10;4.70;;;10.10;99.90;;;;;;5067076;28;20211;-67
2022/11/05 00:25:15;;;;;;;5.67;4.97;;;10.20;99.90;;;;;;5066963;28;20199;-67
2022/11/05 00:27:46;;;;;;;5.23;4.40;;;10.10;99.90;;;;;;5073645;28;20211;-67
2022/11/05 00:30:17;;;;;;;5.30;4.90;;;10.20;99.90;;;;;;5079001;28;20194;-67
2022/11/05 00:32:45;;;;;;;5.17;4.63;;;10.20;99.90;;;;;;5076410;28;20778;-67
2022/11/05 00:35:12;;;;;;;5.17;4.77;;;10.20;99.90;;;;;;5067938;28;20204;-67
2022/11/05 00:37:39;;;;;;;4.90;4.40;;;10.20;99.90;;;;;;5073212;28;20202;-67
2022/11/05 00:40:07;;;;;;;5.60;4.53;;;10.20;99.90;;;;;;5070252;28;20216;-67
2022/11/05 00:45:20;;;;;;;5.10;4.70;;;10.20;99.90;;;;;;5065895;28;20198;-67
2022/11/05 00:50:31;;;;;;;6.43;4.60;;;10.10;99.90;;;;;;5066100;28;20281;-67
2022/11/05 00:52:59;;;;;;;7.00;5.07;;;10.10;99.90;;;;;;5066172;28;20239;-68
2022/11/05 00:55:33;;;;;;;6.47;5.13;;;10.10;99.90;;;;;;5066785;28;20214;-67
2022/11/05 00:58:00;;;;;;;7.10;4.80;;;10.10;99.90;;;;;;5066243;28;20207;-67
2022/11/05 01:00:30;;;;;;;5.30;4.83;;;10.10;99.90;;;;;;5066781;28;20214;-67
2022/11/05 01:02:58;;;;;;;5.97;5.37;;;10.10;99.90;;;;;;5066091;28;20254;-67
2022/11/05 01:05:25;;;;;;;6.07;5.47;;;10.10;99.90;;;;;;5066135;28;20196;-67
2022/11/05 01:07:53;;;;;;;8.67;5.53;;;10.00;99.90;;;;;;5066363;28;21069;-67
2022/11/05 01:10:20;;;;;;;7.30;5.43;;;10.00;99.90;;;;;;5066071;28;20211;-67
2022/11/05 01:12:46;;;;;;;6.80;5.83;;;10.00;99.90;;;;;;5066105;28;20242;-67
2022/11/05 01:15:13;;;;;;;8.73;5.90;;;9.90;99.90;;;;;;5066853;28;20219;-67
2022/11/05 01:17:41;;;;;;;6.03;5.53;;;9.90;99.90;;;;;;5066029;28;20550;-67
2022/11/05 01:20:09;;;;;;;6.67;6.03;;;9.90;99.90;;;;;;5065691;28;20556;-67
2022/11/05 01:22:36;;;;;;;9.00;6.17;;;9.80;99.90;;;;;;5065695;28;20549;-67
2022/11/05 01:25:03;;;;;;;6.87;5.97;;;9.80;99.90;;;;;;5065868;28;20219;-67
2022/11/05 01:27:30;;;;;;;7.17;5.77;;;9.80;99.90;;;;;;5074273;28;20218;-67
2022/11/05 01:29:57;;;;;;;7.67;6.43;;;9.80;99.90;;;;;;5069713;28;20195;-67
2022/11/05 01:32:23;;;;;;;7.27;6.33;;;9.70;99.90;;;;;;5066662;28;20238;-67
2022/11/05 01:34:52;;;;;;;7.20;5.93;;;9.70;99.90;;;;;;5070339;28;20203;-67
2022/11/05 01:37:18;;;;;;;8.07;6.80;;;9.70;99.90;;;;;;5085376;28;20209;-67
2022/11/05 01:39:45;;;;;;;6.93;6.23;;;9.80;99.90;;;;;;5067346;28;20238;-67
2022/11/05 01:42:18;;;;;;;6.80;6.23;;;9.70;99.90;;;;;;5068585;28;20207;-68
2022/11/05 01:44:55;;;;;;;7.63;6.30;;;9.70;99.90;;;;;;5068083;28;20196;-69
2022/11/05 01:47:29;;;;;;;7.30;6.50;;;9.60;99.90;;;;;;5068234;28;20191;-69
2022/11/05 01:50:02;;;;;;;8.70;6.63;;;9.60;99.90;;;;;;5067069;28;20231;-69
2022/11/05 01:52:34;;;;;;;6.93;6.27;;;9.60;99.90;;;;;;5068001;28;20566;-69
2022/11/05 01:55:03;;;;;;;7.30;6.60;;;9.60;99.90;;;;;;5068299;28;20206;-68
2022/11/05 01:57:31;;;;;;;7.90;6.37;;;9.60;99.90;;;;;;5067499;28;20586;-68
2022/11/05 02:00:00;;;;;;;8.80;6.80;;;9.50;99.90;;;;;;5081042;28;20208;-68
2022/11/05 02:02:28;;;;;;;7.17;6.50;;;9.50;99.90;;;;;;5087612;28;20838;-68
2022/11/05 02:05:00;;;;;;;7.30;6.50;;;9.50;99.90;;;;;;5087420;28;20782;-68
2022/11/05 02:07:29;;;;;;;6.70;6.07;;;9.50;99.90;;;;;;5087889;28;20187;-68
2022/11/05 02:10:01;;;;;;;8.37;6.40;;;9.50;99.90;;;;;;5087798;28;20209;-68
2022/11/05 02:12:28;;;;;;;7.20;6.10;;;9.50;99.90;;;;;;5087909;28;20223;-68
2022/11/05 02:14:55;;;;;;;7.43;6.73;;;9.40;99.90;;;;;;5075039;28;20203;-68
2022/11/05 02:17:33;;;;;;;7.63;6.73;;;9.30;99.90;;;;;;5067519;28;20665;-68
2022/11/05 02:20:16;;;;;;;7.87;7.00;;;9.30;99.90;;;;;;5067089;28;20199;-68
2022/11/05 02:23:37;;;;;;;8.70;7.33;;;9.30;99.90;;;;;;5067754;28;20210;-68
2022/11/05 02:26:30;;;;;;;7.83;6.30;;;9.30;99.90;;;;;;5042145;28;20207;-68
2022/11/05 02:29:22;;;;;;;7.53;6.67;;;9.30;99.90;;;;;;5066995;28;20195;-68
2022/11/05 02:31:59;;;;;;;6.90;6.23;;;9.20;99.90;;;;;;5034961;28;20196;-69
2022/11/05 02:34:33;;;;;;;8.93;5.93;;;9.20;99.90;;;;;;5065234;28;20210;-68
2022/11/05 02:37:07;;;;;;;8.23;6.47;;;9.20;99.90;;;;;;5067016;28;20191;-68
2022/11/05 02:39:42;;;;;;;9.27;5.93;;;9.20;99.90;;;;;;5075104;28;20202;-68
2022/11/05 02:42:20;;;;;;;6.67;5.93;;;9.10;99.90;;;;;;5087433;28;20198;-68
2022/11/05 02:44:54;;;;;;;9.33;5.90;;;9.10;99.90;;;;;;5087499;28;20194;-68
2022/11/05 02:47:32;;;;;;;6.70;6.10;;;9.20;99.90;;;;;;5087462;28;20197;-67
2022/11/05 02:50:10;;;;;;;8.17;5.93;;;9.10;99.90;;;;;;5087188;28;20226;-68
2022/11/05 02:52:43;;;;;;;6.70;5.50;;;9.20;99.90;;;;;;5085667;28;20221;-67
2022/11/05 02:55:18;;;;;;;8.50;5.33;;;9.20;99.90;;;;;;5087516;28;20226;-68
2022/11/05 02:57:47;;;;;;;6.57;5.70;;;9.20;99.90;;;;;;5069071;28;20211;-68
2022/11/05 03:00:38;;;;;;;8.20;5.70;;;9.20;99.90;;;;;;5067270;28;20218;-68
2022/11/05 03:03:09;;;;;;;8.87;5.70;;;9.20;99.90;;;;;;5068912;28;20250;-68
2022/11/05 03:05:46;;;;;;;8.80;5.83;;;9.20;99.90;;;;;;5070489;28;20646;-67
2022/11/05 03:08:21;;;;;;;6.70;5.30;;;9.20;99.90;;;;;;5071075;28;20195;-67
2022/11/05 03:10:56;;;;;;;9.00;5.70;;;9.30;99.90;;;;;;5070394;28;20207;-67
2022/11/05 03:13:32;;;;;;;6.50;4.97;;;9.20;99.90;;;;;;5077279;28;20218;-68
2022/11/05 03:16:02;;;;;;;7.80;5.40;;;9.20;99.90;;;;;;5090895;28;20195;-67
2022/11/05 03:18:41;;;;;;;6.57;5.27;;;9.20;99.90;;;;;;5090490;28;20560;-67
2022/11/05 03:21:11;;;;;;;9.40;5.20;;;9.10;99.90;;;;;;5083273;28;20214;-67
2022/11/05 03:23:43;;;;;;;5.33;4.83;;;9.20;99.90;;;;;;5070366;28;20290;-67
2022/11/05 03:26:16;;;;;;;5.80;4.77;;;9.10;99.90;;;;;;5070524;28;20196;-68
2022/11/05 03:28:47;;;;;;;8.10;4.33;;;9.20;99.90;;;;;;5070077;28;20253;-67
2022/11/05 03:31:17;;;;;;;8.40;4.40;;;9.10;99.90;;;;;;5070436;28;20196;-67
2022/11/05 03:33:46;;;;;;;6.80;4.83;;;9.10;99.90;;;;;;5069790;28;20231;-67
2022/11/05 03:36:18;;;;;;;8.37;4.97;;;9.10;99.90;;;;;;5070698;28;20207;-67
2022/11/05 03:38:51;;;;;;;10.03;5.07;;;9.00;99.90;;;;;;5070386;28;20195;-67
2022/11/05 03:41:21;;;;;;;6.07;4.93;;;9.00;99.90;;;;;;5070123;28;20196;-67
2022/11/05 03:43:50;;;;;;;5.87;4.40;;;9.00;99.90;;;;;;5070161;28;20207;-68
2022/11/05 03:46:20;;;;;;;6.10;4.40;;;9.00;99.90;;;;;;5069918;28;20216;-67
2022/11/05 03:48:52;;;;;;;6.20;4.77;;;9.00;99.90;;;;;;5069104;28;20232;-68
2022/11/05 03:51:29;;;;;;;7.80;3.73;;;9.00;99.90;;;;;;5069864;28;20200;-68
2022/11/05 03:53:58;;;;;;;5.47;4.73;;;9.00;99.90;;;;;;5069376;28;20238;-68
2022/11/05 03:56:29;;;;;;;5.13;4.27;;;9.00;99.90;;;;;;5069489;28;20216;-68
2022/11/05 03:58:56;;;;;;;5.03;4.50;;;9.10;99.90;;;;;;5069559;28;20698;-67
2022/11/05 04:01:24;;;;;;;4.60;4.20;;;9.10;99.90;;;;;;5069604;28;20214;-68
2022/11/05 04:03:52;;;;;;;6.97;4.60;;;9.10;99.90;;;;;;5069163;28;20607;-68
2022/11/05 04:14:32;;;;;;;5.40;4.23;;;9.00;99.90;;;;;;5068922;28;20230;-67
2022/11/05 04:17:08;;;;;;;7.60;4.53;;;9.10;99.90;;;;;;5069055;28;20211;-68
2022/11/05 04:25:07;;;;;;;8.00;4.50;;;9.00;99.90;;;;;;5089414;28;20229;-67
2022/11/05 04:27:35;;;;;;;6.07;4.13;;;9.00;99.90;;;;;;5072554;28;20199;-68
2022/11/05 04:30:19;;;;;;;5.23;3.67;;;9.00;99.90;;;;;;5069333;28;20315;-68
2022/11/05 04:32:56;;;;;;;7.20;4.77;;;9.00;99.90;;;;;;5068830;28;20223;-68
2022/11/05 04:35:25;;;;;;;7.57;4.60;;;8.90;99.90;;;;;;5068585;28;20697;-68
2022/11/05 04:37:52;;;;;;;6.03;4.43;;;8.80;99.90;;;;;;5069037;28;20208;-68
2022/11/05 04:40:18;;;;;;;6.17;5.33;;;8.80;99.90;;;;;;5068815;28;20218;-68
2022/11/05 04:42:45;;;;;;;7.53;4.70;;;8.80;99.90;;;;;;5068307;28;20215;-67
2022/11/05 04:45:12;;;;;;;6.00;4.50;;;8.80;99.90;;;;;;5069260;28;20214;-67
2022/11/05 04:47:39;;;;;;;6.57;4.57;;;8.80;99.90;;;;;;5068558;28;20218;-67
2022/11/05 04:50:07;;;;;;;9.60;4.40;;;8.80;99.90;;;;;;5068587;28;20211;-67
2022/11/05 04:52:35;;;;;;;7.57;4.20;;;8.90;99.90;;;;;;5068473;28;20203;-67
2022/11/05 04:55:02;;;;;;;4.23;3.83;;;8.80;99.90;;;;;;5068852;28;20207;-67
2022/11/05 04:57:29;;;;;;;5.43;4.40;;;8.90;99.90;;;;;;5084532;28;20211;-67
2022/11/05 04:59:56;;;;;;;9.13;4.20;;;8.90;99.90;;;;;;5088823;28;20214;-68
2022/11/05 05:02:22;;;;;;;8.17;4.20;;;8.90;99.90;;;;;;5080666;28;20204;-69
2022/11/05 05:04:49;;;;;;;5.73;4.47;;;8.80;99.90;;;;;;5068285;28;20195;-68
2022/11/05 05:07:16;;;;;;;5.40;3.97;;;8.80;99.90;;;;;;5086511;28;20630;-68
2022/11/05 05:09:44;;;;;;;8.10;3.90;;;8.80;99.90;;;;;;5088283;28;20669;-68
2022/11/05 05:12:11;;;;;;;5.43;3.90;;;8.70;99.90;;;;;;5088356;28;20669;-68
2022/11/05 05:14:38;;;;;;;14.20;4.50;;;8.70;99.90;;;;;;5088467;28;20230;-68
2022/11/05 05:17:04;;;;;;;7.13;4.30;;;8.70;99.90;;;;;;5088554;28;20206;-68
2022/11/05 05:21:37;;;;;;;6.53;4.17;;;8.60;99.90;;;;;;5088448;28;20199;-68
2022/11/05 05:22:17;;;;;;;3.97;3.57;;;8.50;99.90;;;;;;5070526;28;20238;-68
2022/11/05 05:24:46;;;;;;;6.77;4.00;;;8.50;99.90;;;;;;5067453;28;20300;-68
2022/11/05 05:27:12;;;;;;;5.43;3.53;;;8.50;99.90;;;;;;5074845;28;20223;-68
2022/11/05 05:29:39;;;;;;;5.50;3.90;;;8.50;99.90;;;;;;5067949;28;20214;-67
2022/11/05 05:32:06;;;;;;;7.23;4.00;;;8.50;99.90;;;;;;5067858;28;20249;-68
2022/11/05 05:34:33;;;;;;;6.70;3.57;;;8.50;99.90;;;;;;5067546;28;20376;-68
2022/11/05 05:37:00;;;;;;;7.63;4.03;;;8.40;99.90;;;;;;5067672;28;20210;-68
2022/11/05 05:39:27;;;;;;;7.60;4.77;;;8.40;99.90;;;;;;5068015;28;20214;-68
2022/11/05 05:41:55;;;;;;;5.37;3.70;;;8.40;99.90;;;;;;5067906;28;20222;-68
2022/11/05 05:44:22;;;;;;;5.33;3.77;;;8.40;99.90;;;;;;5067927;28;20737;-68
2022/11/05 05:46:48;;;;;;;4.90;3.27;;;8.40;99.90;;;;;;5067580;28;20203;-68
2022/11/05 05:49:15;;;;;;;5.00;3.87;;;8.40;99.90;;;;;;5067490;28;20223;-67
2022/11/05 05:51:42;;;;;;;5.47;3.50;;;8.40;99.90;;;;;;5067749;28;20210;-67
2022/11/05 05:54:10;;;;;;;9.13;3.80;;;8.40;99.90;;;;;;5067851;28;20231;-68
2022/11/05 05:56:37;;;;;;;6.60;3.80;;;8.40;99.90;;;;;;5068058;28;20207;-68
2022/11/05 05:59:06;;;;;;;4.93;3.67;;;8.40;99.90;;;;;;5067568;28;20215;-69
2022/11/05 06:01:33;;;;;;;5.13;3.47;;;8.40;99.90;;;;;;5087448;28;20697;-69
2022/11/05 06:04:00;;;;;;;5.10;3.30;;;8.40;99.90;;;;;;5087104;28;20971;-69
2022/11/05 06:06:26;;;;;;;9.83;4.27;;;8.40;99.90;;;;;;5087609;28;20207;-69
2022/11/05 06:08:54;;;;;;;6.17;3.57;;;8.40;99.90;;;;;;5087512;28;20210;-68
2022/11/05 06:11:21;;;;;;;6.30;3.40;;;8.40;99.90;;;;;;5087510;28;20676;-68
2022/11/05 06:13:48;;;;;;;7.33;3.60;;;8.40;99.90;;;;;;5081470;28;20215;-69
2022/11/05 06:16:18;;;;;;;4.63;3.40;;;8.40;99.90;;;;;;5067348;28;20206;-69
2022/11/05 06:18:45;;;;;;;5.50;3.27;;;8.40;99.90;;;;;;5067324;28;20238;-69
2022/11/05 06:21:14;;;;;;;3.53;3.07;;;8.50;99.90;;;;;;5067354;28;20207;-68
2022/11/05 06:23:43;;;;;;;5.43;3.30;;;8.50;99.90;;;;;;5066930;28;20215;-69
2022/11/05 06:26:12;;;;;;;6.57;3.90;;;8.50;99.90;;;;;;5072244;28;20211;-68
2022/11/05 06:28:40;;;;;;;6.03;3.37;;;8.50;99.90;;;;;;5068150;28;20693;-69
2022/11/05 06:31:07;;;;;;;4.37;3.13;;;8.50;99.90;;;;;;5067151;28;20298;-69
2022/11/05 06:33:35;;;;;;;6.03;3.40;;;8.40;99.90;;;;;;5066729;28;20235;-69
2022/11/05 06:36:03;;;;;;;5.37;3.20;;;8.40;99.90;;;;;;5067389;28;20306;-69
2022/11/05 06:38:32;;;;;;;6.60;3.57;;;8.40;99.90;;;;;;5071196;28;20207;-68
2022/11/05 06:41:00;;;;;;;8.77;3.10;;;8.40;99.90;;;;;;5070750;28;20207;-69
2022/11/05 06:43:27;;;;;;;6.80;3.30;;;8.40;99.90;;;;;;5071073;28;20622;-68
2022/11/05 06:45:54;;;;;;;7.33;3.50;;;8.30;99.90;;;;;;5070858;28;20207;-68
2022/11/05 06:48:21;;;;;;;5.77;3.40;;;8.30;99.90;;;;;;5071020;28;20231;-68
2022/11/05 06:50:49;;;;;;;6.47;3.37;;;8.30;99.90;;;;;;5070480;28;20210;-68
2022/11/05 06:53:16;;;;;;;4.10;3.20;;;8.40;99.90;;;;;;5070843;28;20211;-68
2022/11/05 06:55:46;;;;;;;9.07;3.80;;;8.40;99.90;;;;;;5072027;28;20569;-68
2022/11/05 06:58:13;;;;;;;9.10;3.50;;;8.40;99.90;;;;;;5091139;28;20218;-68
2022/11/05 07:00:40;;;;;;;4.50;3.40;;;8.40;99.90;;;;;;5091168;28;20214;-68
2022/11/05 07:03:08;;;;;;;9.50;3.93;;;8.30;99.90;;;;;;5090609;28;20234;-68
2022/11/05 07:05:37;;;;;;;9.10;4.17;;;8.30;99.90;;;;;;5090894;28;20213;-68
2022/11/05 07:08:05;;;;;;;5.47;3.50;;;8.30;99.90;;;;;;5091165;28;20203;-68
2022/11/05 07:10:32;;;;;;;5.77;3.70;;;8.20;99.90;;;;;;5077637;28;20199;-68
2022/11/05 07:12:59;;;;;;;5.20;3.77;;;8.20;99.90;;;;;;5070429;28;20576;-67
2022/11/05 07:15:25;;;;;;;5.90;4.07;;;8.20;99.90;;;;;;5070364;28;20239;-68
2022/11/05 07:17:57;;;;;;;6.23;4.13;;;8.30;99.90;;;;;;5070304;28;20211;-68
2022/11/05 07:20:24;;;;;;;8.47;4.07;;;8.30;99.90;;;;;;5069915;28;20253;-68
2022/11/05 07:22:51;;;;;;;9.30;4.17;;;8.30;99.90;;;;;;5070483;28;20571;-68
2022/11/05 07:25:19;;;;;;;5.33;4.10;;;8.30;99.90;;;;;;5070542;28;20207;-68
2022/11/05 07:27:46;;;;;;;12.30;4.50;;;8.20;99.90;;;;;;5084315;28;20210;-68
2022/11/05 07:30:13;;;;;;;6.83;3.97;;;8.20;99.90;;;;;;5090506;28;20211;-68
2022/11/05 07:32:40;;;;;;;6.73;4.30;;;8.20;99.90;;;;;;5090058;28;20717;-68
2022/11/05 07:35:08;;;;;;;7.07;4.10;;;8.10;99.90;;;;;;5090263;28;20226;-68
2022/11/05 07:37:42;;;;;;;6.83;4.70;;;8.10;99.90;;;;;;5090629;28;20218;-67
2022/11/05 07:40:10;;;;;;;7.20;4.47;;;8.20;99.90;;;;;;5089968;28;20237;-68
2022/11/05 07:42:41;;;;;;;6.30;4.40;;;8.10;99.90;;;;;;5090393;28;20271;-68
2022/11/05 07:45:09;;;;;;;8.20;4.40;;;8.20;99.90;;;;;;5090481;28;20587;-68
2022/11/05 07:47:36;;;;;;;13.50;4.30;;;8.20;99.90;;;;;;5089709;28;20310;-68
2022/11/05 07:50:04;;;;;;;6.77;4.53;;;8.20;99.90;;;;;;5089793;28;20410;-68
2022/11/05 07:52:31;;;;;;;6.57;4.70;;;8.10;99.90;;;;;;5090224;28;20206;-66
2022/11/05 07:54:58;;;;;;;7.07;4.30;;;8.20;99.90;;;;;;5089983;28;20226;-68
2022/11/05 07:57:25;;;;;;;8.80;4.53;;;8.20;99.90;;;;;;5074450;28;20211;-66
2022/11/05 07:59:53;;;;;;;7.53;4.40;;;8.30;99.90;;;;;;5069749;28;20558;-67
2022/11/05 08:02:20;;;;;;;11.63;4.60;;;8.40;99.90;;;;;;5069198;28;20204;-68
2022/11/05 08:04:47;;;;;;;9.03;4.27;;;8.50;99.90;;;;;;5069410;28;20207;-68
2022/11/05 08:07:13;;;;;;;6.37;4.43;;;8.70;99.90;;;;;;5069536;28;20322;-68
2022/11/05 08:09:40;;;;;;;7.63;4.37;;;8.70;99.90;;;;;;5072056;28;20221;-67
2022/11/05 08:12:08;;;;;;;6.73;4.73;;;8.80;99.90;;;;;;5072257;28;20202;-67
2022/11/05 08:14:35;;;;;;;12.60;4.17;;;8.90;99.90;;;;;;5084711;28;20773;-67
2022/11/05 08:17:03;;;;;;;6.20;4.20;;;8.90;99.90;;;;;;5081513;28;20222;-67
2022/11/05 08:19:29;;;;;;;9.60;4.00;;;8.80;99.90;;;;;;5069269;28;20211;-66
2022/11/05 08:21:56;;;;;;;6.17;3.90;;;8.80;99.90;;;;;;5077367;28;20206;-67
2022/11/05 08:24:23;;;;;;;9.00;4.23;;;8.80;99.90;;;;;;5089653;28;20218;-66
2022/11/05 08:26:50;;;;;;;6.33;3.70;;;8.80;99.90;;;;;;5078591;28;20207;-66
2022/11/05 08:29:16;;;;;;;9.37;4.40;;;8.90;99.90;;;;;;5069225;28;20227;-66
2022/11/05 08:31:43;;;;;;;7.17;4.10;;;8.90;99.90;;;;;;5069430;28;20226;-67
2022/11/05 08:34:11;;;;;;;7.03;3.93;;;9.00;99.90;;;;;;5088713;28;20242;-67
2022/11/05 08:36:40;;;;;;;11.87;4.03;;;9.00;99.90;;;;;;5081909;28;20210;-67
2022/11/05 08:39:08;;;;;;;8.80;4.07;;;9.20;99.90;;;;;;5073659;28;20200;-67
2022/11/05 08:41:35;;;;;;;11.47;4.27;;;9.30;99.90;;;;;;5077403;28;20242;-67
2022/11/05 08:44:01;;;;;;;8.47;3.90;;;9.30;99.90;;;;;;5083128;28;20206;-67
2022/11/05 08:46:28;;;;;;;8.83;3.63;;;9.20;99.90;;;;;;5088978;28;20211;-67
2022/11/05 08:48:55;;;;;;;8.27;3.33;;;9.40;99.90;;;;;;5088559;28;20223;-67
2022/11/05 08:51:23;;;;;;;8.23;3.40;;;9.40;99.90;;;;;;5088912;28;20210;-67
2022/11/05 08:53:50;;;;;;;9.17;3.70;;;9.40;99.90;;;;;;5088694;28;20206;-66
2022/11/05 08:56:16;;;;;;;13.50;3.93;;;9.40;99.90;;;;;;5088341;28;20229;-67
2022/11/05 08:58:43;;;;;;;7.90;3.27;;;9.60;99.90;;;;;;5081454;28;20260;-67
2022/11/05 09:01:10;;;;;;;6.07;3.17;;;9.70;99.90;;;;;;5068772;28;20235;-67
2022/11/05 09:03:37;;;;;;;9.30;3.60;;;9.70;99.90;;;;;;5067761;28;20239;-67
2022/11/05 09:06:04;;;;;;;6.40;3.17;;;9.80;99.90;;;;;;5068847;28;20218;-67
2022/11/05 09:08:32;;;;;;;7.27;3.47;;;9.90;99.90;;;;;;5067882;28;20557;-67
2022/11/05 09:10:59;;;;;;;6.70;3.80;;;10.00;99.90;;;;;;5068333;28;20212;-67
2022/11/05 09:13:26;;;;;;;4.53;2.90;;;10.10;99.90;;;;;;5068124;28;20214;-68
2022/11/05 09:15:53;;;;;;;5.73;3.37;;;10.20;99.90;;;;;;5068052;28;20245;-68
2022/11/05 09:18:20;;;;;;;5.90;3.00;;;10.20;99.90;;;;;;5067593;28;20207;-68
2022/11/05 09:20:47;;;;;;;5.57;2.73;;;10.20;99.90;;;;;;5067903;28;20613;-68
2022/11/05 09:23:15;;;;;;;7.67;3.10;;;10.30;99.90;;;;;;5068265;28;20203;-66
2022/11/05 09:25:43;;;;;;;6.87;3.03;;;10.30;99.90;;;;;;5069007;28;20583;-66
2022/11/05 09:28:11;;;;;;;9.43;2.90;;;10.40;99.90;;;;;;5072263;28;20200;-66
2022/11/05 09:30:41;;;;;;;5.13;3.23;;;10.50;99.90;;;;;;5066605;28;20207;-66
2022/11/05 09:33:08;;;;;;;6.93;3.03;;;10.70;99.90;;;;;;5080048;28;20199;-66
2022/11/05 09:35:38;;;;;;;7.00;2.90;;;10.80;99.90;;;;;;5086769;28;20230;-66
2022/11/05 09:38:05;;;;;;;12.53;3.10;;;10.80;99.90;;;;;;5086333;28;20211;-66
2022/11/05 09:40:37;;;;;;;4.83;2.97;;;10.80;99.90;;;;;;5086296;28;20215;-66
2022/11/05 09:43:06;;;;;;;7.83;2.50;;;10.90;99.90;;;;;;5085618;28;20194;-65
2022/11/05 09:45:35;;;;;;;4.83;2.70;;;10.90;99.90;;;;;;5085877;28;20225;-66
2022/11/05 09:48:08;;;;;;;6.50;2.67;;;11.00;99.90;;;;;;5085340;28;20226;-66
2022/11/05 09:50:39;;;;;;;6.47;2.30;;;11.00;99.90;;;;;;5085289;28;20190;-66
2022/11/05 09:53:06;;;;;;;8.20;2.90;;;11.10;99.90;;;;;;5085944;28;20217;-66
2022/11/05 09:55:38;;;;;;;5.80;3.07;;;11.20;99.90;;;;;;5085292;28;20238;-66
2022/11/05 09:58:14;;;;;;;5.00;2.87;;;11.30;99.90;;;;;;5065618;28;20191;-65
2022/11/05 10:00:41;;;;;;;7.00;2.77;;;11.40;99.90;;;;;;5085503;28;20235;-65
2022/11/05 10:03:15;;;;;;;6.33;2.33;;;11.50;99.90;;;;;;5085227;28;20242;-66
2022/11/05 10:05:42;;;;;;;6.93;2.90;;;11.50;99.90;;;;;;5085443;28;20204;-66
2022/11/05 10:08:15;;;;;;;4.00;2.50;;;11.70;99.90;;;;;;5081155;28;20618;-66
2022/11/05 10:10:46;;;;;;;9.37;2.40;;;11.70;99.90;;;;;;5064577;28;20195;-66
2022/11/05 10:13:21;;;;;;;5.67;2.67;;;11.80;99.90;;;;;;5065456;28;20200;-66
2022/11/05 10:15:55;;;;;;;5.47;2.17;;;11.90;99.90;;;;;;5079448;28;20218;-66
2022/11/05 10:18:26;;;;;;;5.30;2.43;;;12.00;99.90;;;;;;5085706;28;20261;-67
2022/11/05 10:20:53;;;;;;;8.47;2.63;;;12.00;99.90;;;;;;5079354;28;20791;-66
2022/11/05 10:23:22;;;;;;;4.63;2.20;;;12.10;99.90;;;;;;5064870;28;20203;-66
2022/11/05 10:25:53;;;;;;;8.83;2.60;;;12.20;99.90;;;;;;5072195;28;20674;-66
2022/11/05 10:28:24;;;;;;;4.47;2.00;;;12.20;99.90;;;;;;5065007;28;20191;-67
2022/11/05 10:30:56;;;;;;;6.63;2.47;;;12.30;99.90;;;;;;5065224;28;20207;-67
2022/11/05 10:33:30;;;;;;;10.00;2.53;;;12.40;99.90;;;;;;5064823;28;20202;-67
2022/11/05 10:36:01;;;;;;;6.00;2.53;;;12.50;99.90;;;;;;5064713;28;20223;-67
2022/11/05 10:38:28;;;;;;;6.37;2.77;;;12.60;99.90;;;;;;5064350;28;20400;-66
2022/11/05 10:41:08;;;;;;;8.83;2.53;;;12.60;99.90;;;;;;5064711;28;20222;-67
2022/11/05 10:43:44;;;;;;;9.60;2.87;;;12.60;99.90;;;;;;5064794;28;20204;-67
2022/11/05 10:46:24;;;;;;;6.03;2.40;;;12.80;99.90;;;;;;5064392;28;20570;-67
2022/11/05 10:49:03;;;;;;;9.93;2.57;;;12.80;99.90;;;;;;5064466;28;20223;-67
2022/11/05 10:51:31;;;;;;;7.10;2.50;;;12.90;99.90;;;;;;5064960;28;20583;-67
2022/11/05 10:54:04;;;;;;;7.97;2.30;;;13.10;99.90;;;;;;5064549;28;20204;-67
2022/11/05 10:56:34;;;;;;;7.73;2.33;;;13.10;99.90;;;;;;5075187;28;20250;-67
2022/11/05 10:59:03;;;;;;;5.73;2.10;;;13.10;99.90;;;;;;5086354;28;20676;-67
2022/11/05 11:01:32;;;;;;;2.83;2.10;;;13.20;99.90;;;;;;5087032;28;20214;-67
2022/11/05 11:04:13;;;;;;;5.63;2.50;;;13.40;99.90;;;;;;5085946;28;20238;-67
2022/11/05 11:06:47;;;;;;;6.17;2.20;;;13.30;99.90;;;;;;5066632;28;20264;-67
2022/11/05 11:09:21;;;;;;;3.60;1.97;;;13.40;99.90;;;;;;5066400;28;20200;-68
2022/11/05 11:11:57;;;;;;;3.67;1.80;;;13.50;99.90;;;;;;5066726;28;20206;-68
2022/11/05 11:14:25;;;;;;;5.17;2.47;;;13.70;99.90;;;;;;5066485;28;20669;-67
2022/11/05 11:16:56;;;;;;;3.50;2.20;;;13.70;99.90;;;;;;5066248;28;20199;-67
2022/11/05 11:19:28;;;;;;;9.23;2.20;;;13.90;99.90;;;;;;5066228;28;20669;-67
2022/11/05 11:22:18;;;;;;;6.03;2.33;;;13.90;99.90;;;;;;5080773;28;20214;-68
2022/11/05 11:24:46;;;;;;;6.67;1.87;;;14.10;99.90;;;;;;5064840;28;20278;-67
2022/11/05 11:27:16;;;;;;;5.67;1.80;;;14.10;99.90;;;;;;5070206;28;20208;-67
2022/11/05 11:29:48;;;;;;;7.70;2.40;;;14.00;99.90;;;;;;5070061;28;20214;-67
2022/11/05 11:32:18;;;;;;;3.63;1.73;;;14.10;99.90;;;;;;5086832;28;20199;-67
2022/11/05 11:34:48;;;;;;;4.03;1.63;;;14.10;99.90;;;;;;5070206;28;20239;-67
2022/11/05 11:37:18;;;;;;;4.27;1.60;;;14.00;99.90;;;;;;5070342;28;20211;-67
2022/11/05 11:39:48;;;;;;;4.00;1.97;;;14.10;99.90;;;;;;5070009;28;20239;-68
2022/11/05 11:42:21;;;;;;;3.10;1.30;;;14.20;99.90;;;;;;5086560;28;20195;-68
2022/11/05 11:44:51;;;;;;;4.50;1.80;;;14.40;99.90;;;;;;5074520;28;20222;-68
2022/11/05 11:47:21;;;;;;;6.40;1.70;;;14.50;99.90;;;;;;5082291;28;20215;-67
2022/11/05 11:49:51;;;;;;;4.17;1.57;;;14.60;99.90;;;;;;5068684;28;20220;-68
2022/11/05 11:52:24;;;;;;;2.77;1.13;;;14.80;99.90;;;;;;5068055;28;20213;-67
2022/11/05 11:54:52;;;;;;;3.50;1.57;;;14.80;99.90;;;;;;5067696;28;20227;-68
2022/11/05 11:57:24;;;;;;;3.33;1.50;;;14.90;99.90;;;;;;5082386;28;20318;-67
2022/11/05 11:59:53;;;;;;;6.27;3.40;;;14.80;99.90;;;;;;5081304;28;20211;-67
2022/11/05 12:02:39;;;;;;;5.43;1.83;;;14.80;99.90;;;;;;5077768;28;20223;-68
2022/11/05 12:05:30;;;;;;;4.60;1.53;;;14.90;99.90;;;;;;5080108;28;20206;-67
2022/11/05 12:08:05;;;;;;;4.33;2.00;;;15.00;99.90;;;;;;5078940;28;20195;-67
2022/11/05 12:10:57;;;;;;;6.10;1.77;;;15.00;99.90;;;;;;5077735;28;20206;-67
2022/11/05 12:13:51;;;;;;;6.53;1.90;;;14.80;99.90;;;;;;5076098;28;20198;-67
2022/11/05 12:16:29;;;;;;;4.20;1.87;;;14.70;99.90;;;;;;5087335;28;20219;-67
2022/11/05 12:19:03;;;;;;;3.83;1.70;;;14.80;99.90;;;;;;5083966;28;20198;-67
2022/11/05 12:21:40;;;;;;;7.90;2.13;;;14.80;99.90;;;;;;5072354;28;20198;-67
2022/11/05 12:24:23;;;;;;;3.47;1.87;;;14.90;99.90;;;;;;5067223;28;20210;-67
2022/11/05 12:27:01;;;;;;;3.50;1.40;;;15.00;99.90;;;;;;5070738;28;20207;-67
2022/11/05 12:29:41;;;;;;;5.30;1.80;;;15.10;99.90;;;;;;5067274;28;20210;-67
2022/11/05 12:32:28;;;;;;;5.30;1.63;;;15.20;99.90;;;;;;5067402;28;20184;-67
2022/11/05 12:35:05;;;;;;;5.13;1.23;;;15.30;99.90;;;;;;5065879;28;20202;-67
2022/11/05 12:37:37;;;;;;;3.97;1.63;;;15.60;99.90;;;;;;5066688;28;20199;-67
2022/11/05 12:40:41;;;;;;;3.63;1.97;;;15.70;99.90;;;;;;5073581;28;20196;-67
2022/11/05 12:43:16;;;;;;;3.70;1.70;;;15.70;99.90;;;;;;5087839;28;20222;-67
2022/11/05 12:45:51;;;;;;;2.93;1.63;;;15.90;99.90;;;;;;5077608;28;20187;-67
2022/11/05 12:48:47;;;;;;;2.87;1.80;;;15.80;99.90;;;;;;5077150;28;20222;-67
2022/11/05 12:51:27;;;;;;;3.50;1.43;;;15.80;99.90;;;;;;5066705;28;20215;-67
2022/11/05 12:54:08;;;;;;;3.07;1.50;;;15.70;99.90;;;;;;5066360;28;20439;-67
2022/11/05 12:56:40;;;;;;;5.17;1.50;;;15.70;99.90;;;;;;5066210;28;20234;-67
2022/11/05 12:59:14;;;;;;;4.00;1.80;;;15.40;99.90;;;;;;5086119;28;20195;-67
2022/11/05 13:01:45;;;;;;;4.63;2.00;;;15.50;99.90;;;;;;5080978;28;20659;-67
2022/11/05 13:04:25;;;;;;;5.30;1.87;;;15.60;99.90;;;;;;5065013;28;20231;-67
2022/11/05 13:06:54;;;;;;;3.70;1.53;;;15.70;99.90;;;;;;5066070;28;20195;-67
2022/11/05 13:09:25;;;;;;;2.93;1.57;;;15.90;99.90;;;;;;5065918;28;20230;-67
2022/11/05 13:11:57;;;;;;;5.47;1.97;;;15.90;99.90;;;;;;5065975;28;20658;-67
2022/11/05 13:14:27;;;;;;;5.23;1.97;;;15.90;99.90;;;;;;5066273;28;20196;-67
2022/11/05 13:16:59;;;;;;;4.10;1.80;;;15.70;99.90;;;;;;5066007;28;20219;-67
2022/11/05 13:19:31;;;;;;;2.53;1.63;;;15.40;99.90;;;;;;5074223;28;20208;-67
2022/11/05 13:22:06;;;;;;;3.70;1.57;;;15.50;99.90;;;;;;5071922;28;20199;-67
2022/11/05 13:24:37;;;;;;;5.30;1.97;;;15.50;99.90;;;;;;5073650;28;20187;-65
2022/11/05 13:27:19;;;;;;;3.43;1.90;;;15.60;99.90;;;;;;5080131;28;20231;-65
2022/11/05 13:29:50;;;;;;;5.67;1.80;;;15.60;99.90;;;;;;5065663;28;20217;-67
2022/11/05 13:32:27;;;;;;;4.33;1.93;;;15.50;99.90;;;;;;5072185;28;20560;-67
2022/11/05 13:34:57;;;;;;;3.67;1.50;;;15.40;99.90;;;;;;5077392;28;20206;-67
2022/11/05 13:40:16;;;;;;;6.33;1.60;;;15.40;99.90;;;;;;5080651;28;20667;-67
2022/11/05 13:43:01;;;;;;;5.17;1.87;;;15.20;99.90;;;;;;5065586;28;20206;-67
2022/11/05 13:45:57;;;;;;;5.03;1.60;;;15.10;99.90;;;;;;5065802;28;20204;-67
2022/11/05 13:48:50;;;;;;;4.50;1.60;;;15.00;99.90;;;;;;5065247;28;20227;-67
2022/11/05 13:51:45;;;;;;;5.70;1.50;;;15.00;99.90;;;;;;5065427;28;20776;-67